Time;durP1;ratioP1;P1;durP2;ratioP2;P2;SDS_P1;SDS_P2;PMS_P1;PMS_P2;Temp;Humidity;BMP_temperature;BMP_pressure;BME280_temperature;BME280_humidity;BME280_pressure;Samples;Min_cycle;Max_cycle;Signal;HPM_P1;HPM_P2
2023/06/12 00:00:55;;;;;;;6.22;3.25;;;20.30;99.90;;;;;;5058255;28;20716;-73
2023/06/12 00:03:26;;;;;;;5.72;3.65;;;20.30;99.90;;;;;;5066721;28;20403;-72
2023/06/12 00:05:58;;;;;;;7.53;2.95;;;20.10;99.90;;;;;;5073688;28;20437;-71
2023/06/12 00:08:26;;;;;;;6.30;3.28;;;20.10;99.90;;;;;;5067788;28;20822;-73
2023/06/12 00:10:52;;;;;;;5.10;2.90;;;20.20;99.90;;;;;;5061631;28;20768;-73
2023/06/12 00:13:18;;;;;;;4.00;2.70;;;20.10;99.90;;;;;;5068576;28;20407;-73
2023/06/12 00:15:43;;;;;;;7.00;2.93;;;20.10;99.90;;;;;;5073637;28;20807;-72
2023/06/12 00:18:11;;;;;;;4.88;2.60;;;20.10;99.90;;;;;;5065034;28;20447;-73
2023/06/12 00:20:37;;;;;;;7.70;3.13;;;20.00;99.90;;;;;;5067460;28;21513;-73
2023/06/12 00:23:02;;;;;;;7.00;2.58;;;20.00;99.90;;;;;;5066565;28;20425;-72
2023/06/12 00:25:28;;;;;;;4.05;2.58;;;20.00;99.90;;;;;;5067809;28;20944;-73
2023/06/12 00:27:54;;;;;;;6.68;3.13;;;19.90;99.90;;;;;;5067915;28;20541;-73
2023/06/12 00:30:20;;;;;;;6.07;2.92;;;20.00;99.90;;;;;;5067464;28;20435;-74
2023/06/12 00:32:46;;;;;;;7.80;3.25;;;19.90;99.90;;;;;;5068088;28;20411;-73
2023/06/12 00:35:12;;;;;;;4.38;2.42;;;19.80;99.90;;;;;;5067071;28;21109;-72
2023/06/12 00:37:42;;;;;;;6.33;2.97;;;19.80;99.90;;;;;;5066468;28;20457;-73
2023/06/12 00:40:10;;;;;;;9.77;3.45;;;19.80;99.90;;;;;;5067705;28;20415;-72
2023/06/12 00:42:47;;;;;;;6.20;2.92;;;19.70;99.90;;;;;;5066337;28;20862;-72
2023/06/12 00:45:21;;;;;;;7.15;3.00;;;19.60;99.90;;;;;;5067634;28;20472;-72
2023/06/12 00:47:52;;;;;;;10.82;3.63;;;19.50;99.90;;;;;;5065098;28;20442;-73
2023/06/12 00:50:19;;;;;;;10.50;3.58;;;19.60;99.90;;;;;;5076946;28;20472;-73
2023/06/12 00:52:47;;;;;;;7.40;3.10;;;19.60;99.90;;;;;;5074795;28;20924;-73
2023/06/12 00:55:14;;;;;;;7.00;3.00;;;19.50;99.90;;;;;;5068853;28;20419;-74
2023/06/12 00:57:44;;;;;;;6.78;2.95;;;19.40;99.90;;;;;;5055461;28;20417;-72
2023/06/12 01:00:12;;;;;;;6.88;2.95;;;19.40;99.90;;;;;;5065725;28;20908;-72
2023/06/12 01:02:42;;;;;;;7.05;3.05;;;19.40;99.90;;;;;;5045274;28;20425;-73
2023/06/12 01:05:13;;;;;;;8.20;2.85;;;19.40;99.90;;;;;;5051362;28;20993;-72
2023/06/12 01:07:47;;;;;;;3.85;2.53;;;19.30;99.90;;;;;;5060490;28;20439;-73
2023/06/12 01:10:28;;;;;;;6.55;3.40;;;19.20;99.90;;;;;;5067746;28;20821;-72
2023/06/12 01:12:54;;;;;;;5.95;2.50;;;19.20;99.90;;;;;;5069807;28;20527;-73
2023/06/12 01:15:20;;;;;;;7.95;2.83;;;19.10;99.90;;;;;;5067887;28;20409;-72
2023/06/12 01:17:46;;;;;;;7.47;3.27;;;19.10;99.90;;;;;;5068947;28;20429;-71
2023/06/12 01:20:13;;;;;;;8.10;2.97;;;19.10;99.90;;;;;;5072277;28;20420;-72
2023/06/12 01:23:09;;;;;;;8.23;2.85;;;19.00;99.90;;;;;;5065062;28;20524;-73
2023/06/12 01:25:55;;;;;;;5.28;2.55;;;18.90;99.90;;;;;;5050115;28;20432;-73
2023/06/12 01:28:49;;;;;;;7.60;2.88;;;18.90;99.90;;;;;;5069191;28;20419;-72
2023/06/12 01:31:28;;;;;;;6.10;2.40;;;18.80;99.90;;;;;;5073681;28;20443;-73
2023/06/12 01:34:03;;;;;;;7.47;2.42;;;18.80;99.90;;;;;;5069567;28;20542;-73
2023/06/12 01:36:36;;;;;;;10.65;2.90;;;18.70;99.90;;;;;;5069869;28;20493;-72
2023/06/12 01:39:04;;;;;;;8.32;3.50;;;18.80;99.90;;;;;;5067967;28;20443;-73
2023/06/12 01:41:31;;;;;;;6.00;2.88;;;18.70;99.90;;;;;;5067426;28;20510;-72
2023/06/12 01:43:57;;;;;;;10.55;3.10;;;18.70;99.90;;;;;;5068427;28;20419;-72
2023/06/12 01:46:22;;;;;;;5.80;2.83;;;18.60;99.90;;;;;;5059859;28;20413;-73
2023/06/12 01:48:48;;;;;;;6.70;2.60;;;18.50;99.90;;;;;;5069209;28;20939;-72
2023/06/12 01:51:14;;;;;;;9.07;2.77;;;18.50;99.90;;;;;;5054253;28;20425;-72
2023/06/12 01:53:39;;;;;;;6.00;2.60;;;18.50;99.90;;;;;;5067565;28;20804;-72
2023/06/12 01:56:06;;;;;;;8.32;3.03;;;18.50;99.90;;;;;;5069958;28;20426;-73
2023/06/12 01:58:32;;;;;;;7.28;2.50;;;18.40;99.90;;;;;;5050674;28;20523;-73
2023/06/12 02:00:58;;;;;;;6.70;3.25;;;18.50;99.90;;;;;;5065124;28;20415;-72
2023/06/12 02:03:24;;;;;;;8.17;2.83;;;18.50;99.90;;;;;;5066965;28;20414;-73
2023/06/12 02:05:49;;;;;;;9.53;2.63;;;18.50;99.90;;;;;;5071738;28;20422;-73
2023/06/12 02:08:15;;;;;;;9.23;2.72;;;18.60;99.90;;;;;;5055070;28;20792;-72
2023/06/12 02:10:41;;;;;;;4.97;2.90;;;18.50;99.90;;;;;;5065372;28;20428;-72
2023/06/12 02:13:06;;;;;;;6.53;3.30;;;18.40;99.90;;;;;;5061420;28;20537;-73
2023/06/12 02:15:32;;;;;;;8.00;3.42;;;18.20;99.90;;;;;;5055982;28;20443;-72
2023/06/12 02:17:58;;;;;;;8.43;3.10;;;18.10;99.90;;;;;;5057138;28;20419;-73
2023/06/12 02:20:23;;;;;;;4.77;2.60;;;18.10;99.90;;;;;;5059548;28;20443;-72
2023/06/12 02:22:49;;;;;;;6.63;2.97;;;18.10;99.90;;;;;;5050848;28;20766;-72
2023/06/12 02:25:15;;;;;;;7.57;3.17;;;18.00;99.90;;;;;;5058259;28;20425;-72
2023/06/12 02:27:40;;;;;;;6.60;2.63;;;18.00;99.90;;;;;;5054526;28;20420;-72
2023/06/12 02:30:07;;;;;;;6.05;3.28;;;17.80;99.90;;;;;;5070116;28;20505;-71
2023/06/12 02:32:35;;;;;;;6.88;2.97;;;17.80;99.90;;;;;;5066789;28;20419;-72
2023/06/12 02:35:01;;;;;;;5.38;3.00;;;17.70;99.90;;;;;;5047941;28;20547;-72
2023/06/12 02:37:28;;;;;;;6.25;3.42;;;17.70;99.90;;;;;;5049016;28;20967;-72
2023/06/12 02:39:54;;;;;;;6.10;2.78;;;17.60;99.90;;;;;;5069089;28;20416;-72
2023/06/12 02:42:19;;;;;;;7.20;2.97;;;17.60;99.90;;;;;;5068659;28;20400;-73
2023/06/12 02:44:45;;;;;;;13.70;3.15;;;17.50;99.90;;;;;;5051618;28;20776;-72
2023/06/12 02:47:11;;;;;;;9.48;3.00;;;17.60;99.90;;;;;;5060804;28;20410;-72
2023/06/12 02:49:44;;;;;;;4.77;2.73;;;17.60;99.90;;;;;;5053554;28;20465;-72
2023/06/12 02:52:10;;;;;;;8.50;2.93;;;17.60;99.90;;;;;;5087163;28;20769;-72
2023/06/12 02:54:36;;;;;;;8.70;3.92;;;17.50;99.90;;;;;;5056102;28;20458;-73
2023/06/12 02:57:02;;;;;;;6.50;3.00;;;17.50;99.90;;;;;;5084340;28;20800;-72
2023/06/12 02:59:28;;;;;;;9.02;3.70;;;17.40;99.90;;;;;;5048546;28;20425;-72
2023/06/12 03:01:54;;;;;;;6.07;3.27;;;17.30;99.90;;;;;;5058109;28;20429;-72
2023/06/12 03:04:20;;;;;;;8.57;3.47;;;17.30;99.90;;;;;;5067097;28;20429;-72
2023/06/12 03:06:54;;;;;;;7.00;3.70;;;17.30;99.90;;;;;;5067247;28;20423;-72
2023/06/12 03:09:21;;;;;;;5.57;3.45;;;17.30;99.90;;;;;;5067500;28;20418;-72
2023/06/12 03:11:48;;;;;;;5.67;2.83;;;17.10;99.90;;;;;;5067726;28;20428;-76
2023/06/12 03:14:13;;;;;;;9.10;3.43;;;17.10;99.90;;;;;;5079774;28;20510;-73
2023/06/12 03:16:39;;;;;;;6.37;3.50;;;17.10;99.90;;;;;;5068079;28;20431;-72
2023/06/12 03:19:06;;;;;;;9.73;3.60;;;17.10;99.90;;;;;;5069720;28;20417;-74
2023/06/12 03:21:32;;;;;;;6.55;3.55;;;17.10;99.90;;;;;;5070270;28;20926;-72
2023/06/12 03:23:58;;;;;;;8.57;3.53;;;17.00;99.90;;;;;;5075710;28;20418;-72
2023/06/12 03:26:23;;;;;;;10.05;3.55;;;16.90;99.90;;;;;;5075171;28;20756;-73
2023/06/12 03:28:50;;;;;;;10.07;3.67;;;16.90;99.90;;;;;;5064199;28;20908;-73
2023/06/12 03:31:16;;;;;;;8.45;3.10;;;16.90;99.90;;;;;;5073992;28;20435;-73
2023/06/12 03:33:41;;;;;;;5.68;3.00;;;16.90;99.90;;;;;;5073689;28;20418;-73
2023/06/12 03:36:07;;;;;;;9.52;3.97;;;16.80;99.90;;;;;;5080268;28;20422;-71
2023/06/12 03:38:33;;;;;;;6.87;3.40;;;16.90;99.90;;;;;;5078523;28;20465;-72
2023/06/12 03:40:58;;;;;;;8.13;3.70;;;16.90;99.90;;;;;;5074607;28;20429;-74
2023/06/12 03:43:24;;;;;;;8.18;3.03;;;16.90;99.90;;;;;;5071230;28;20426;-72
2023/06/12 03:45:50;;;;;;;7.87;2.90;;;16.80;99.90;;;;;;5072966;28;20425;-72
2023/06/12 03:48:16;;;;;;;8.10;3.43;;;16.80;99.90;;;;;;5065437;28;20452;-72
2023/06/12 03:50:41;;;;;;;8.20;3.25;;;16.80;99.90;;;;;;5072899;28;20954;-73
2023/06/12 03:53:07;;;;;;;8.83;3.07;;;16.90;99.90;;;;;;5075227;28;20475;-72
2023/06/12 03:55:34;;;;;;;7.87;3.30;;;16.90;99.90;;;;;;5076642;28;20474;-72
2023/06/12 03:58:01;;;;;;;6.68;3.13;;;16.90;99.90;;;;;;5057995;28;20427;-72
2023/06/12 04:00:26;;;;;;;5.20;3.70;;;16.90;99.90;;;;;;5066880;28;20415;-73
2023/06/12 04:02:54;;;;;;;8.65;3.13;;;16.90;99.90;;;;;;5067237;28;20503;-73
2023/06/12 04:05:20;;;;;;;7.53;3.05;;;16.80;99.90;;;;;;5070474;28;20427;-72
2023/06/12 04:07:46;;;;;;;8.27;3.20;;;17.00;99.90;;;;;;5074625;28;20899;-73
2023/06/12 04:10:12;;;;;;;7.25;3.33;;;16.90;99.90;;;;;;5074521;28;20445;-73
2023/06/12 04:12:38;;;;;;;8.80;3.40;;;17.20;99.90;;;;;;5067992;28;20428;-74
2023/06/12 04:15:04;;;;;;;10.13;3.10;;;17.40;99.90;;;;;;5075479;28;20471;-73
2023/06/12 04:17:30;;;;;;;6.30;2.90;;;17.40;99.90;;;;;;5076951;28;22347;-72
2023/06/12 04:19:56;;;;;;;8.27;3.40;;;17.20;99.90;;;;;;5050521;28;20432;-72
2023/06/12 04:22:25;;;;;;;10.63;3.72;;;17.00;99.90;;;;;;5062551;28;20415;-72
2023/06/12 04:24:52;;;;;;;8.98;3.38;;;17.00;99.90;;;;;;5065289;28;20423;-72
2023/06/12 04:27:18;;;;;;;10.23;3.40;;;17.10;99.90;;;;;;5048594;28;20428;-71
2023/06/12 04:29:45;;;;;;;5.93;3.53;;;17.20;99.90;;;;;;5051849;28;20562;-72
2023/06/12 04:32:14;;;;;;;9.27;3.70;;;18.10;99.90;;;;;;5050999;28;20491;-73
2023/06/12 04:34:41;;;;;;;8.73;3.38;;;18.00;99.90;;;;;;5060702;28;20404;-73
2023/06/12 04:37:11;;;;;;;6.73;3.77;;;17.90;99.90;;;;;;5064506;28;20500;-73
2023/06/12 04:39:38;;;;;;;7.80;3.72;;;17.60;99.90;;;;;;5046362;28;20502;-72
2023/06/12 04:42:08;;;;;;;9.27;3.75;;;17.30;99.90;;;;;;5046234;28;20991;-72
2023/06/12 04:44:39;;;;;;;6.50;3.45;;;17.30;99.90;;;;;;5045996;28;20421;-73
2023/06/12 04:47:08;;;;;;;8.13;4.10;;;17.30;99.90;;;;;;5064483;28;20403;-73
2023/06/12 04:49:40;;;;;;;7.75;3.30;;;17.50;99.90;;;;;;5073595;28;20437;-73
2023/06/12 04:52:08;;;;;;;4.45;3.63;;;17.40;99.90;;;;;;5065098;28;20431;-72
2023/06/12 04:54:38;;;;;;;20.30;4.55;;;17.20;99.90;;;;;;5070702;28;20424;-72
2023/06/12 04:57:23;;;;;;;8.77;3.63;;;17.30;99.90;;;;;;5080372;28;20438;-72
2023/06/12 04:59:49;;;;;;;7.50;3.63;;;17.50;99.90;;;;;;5050076;28;20421;-72
2023/06/12 05:02:14;;;;;;;5.07;3.67;;;17.60;99.90;;;;;;5067033;28;20503;-72
2023/06/12 05:04:41;;;;;;;5.13;3.47;;;17.40;99.90;;;;;;5066320;28;20419;-71
2023/06/12 05:07:14;;;;;;;7.78;3.80;;;17.40;99.90;;;;;;5064498;28;20407;-72
2023/06/12 05:09:40;;;;;;;10.50;3.90;;;17.50;99.90;;;;;;5054331;28;20562;-72
2023/06/12 05:12:06;;;;;;;11.77;4.18;;;17.60;99.90;;;;;;5050426;28;20416;-71
2023/06/12 05:14:40;;;;;;;12.03;3.93;;;17.70;99.90;;;;;;5068739;28;20430;-72
2023/06/12 05:17:06;;;;;;;9.30;3.60;;;17.70;99.90;;;;;;5063920;28;20425;-72
2023/06/12 05:19:32;;;;;;;8.98;3.97;;;17.70;99.90;;;;;;5068911;28;20455;-72
2023/06/12 05:21:57;;;;;;;6.97;4.07;;;17.80;99.90;;;;;;5068722;28;20470;-72
2023/06/12 05:24:23;;;;;;;6.45;3.63;;;17.90;99.90;;;;;;5074215;28;20892;-72
2023/06/12 05:26:50;;;;;;;6.70;3.20;;;17.90;99.90;;;;;;5071465;28;20809;-72
2023/06/12 05:29:16;;;;;;;8.18;3.85;;;17.70;99.90;;;;;;5070637;28;20458;-72
2023/06/12 05:31:42;;;;;;;4.97;3.40;;;17.90;99.90;;;;;;5072296;28;20412;-72
2023/06/12 05:34:07;;;;;;;6.80;3.60;;;18.00;99.90;;;;;;5029026;28;20936;-73
2023/06/12 05:36:33;;;;;;;8.32;3.83;;;17.80;99.90;;;;;;5069171;28;20763;-73
2023/06/12 05:38:59;;;;;;;9.67;4.07;;;17.90;99.90;;;;;;5065284;28;20464;-73
2023/06/12 05:41:25;;;;;;;8.17;4.07;;;17.90;99.90;;;;;;5063804;28;20423;-73
2023/06/12 05:43:51;;;;;;;7.70;4.00;;;18.00;99.90;;;;;;5068781;28;20426;-72
2023/06/12 05:46:16;;;;;;;6.77;3.60;;;18.10;99.90;;;;;;5076394;28;20424;-74
2023/06/12 05:48:42;;;;;;;8.05;4.13;;;18.30;99.90;;;;;;5064172;28;20422;-71
2023/06/12 05:51:08;;;;;;;6.72;4.22;;;18.30;99.90;;;;;;5062386;28;20426;-72
2023/06/12 05:53:34;;;;;;;8.10;3.77;;;18.40;99.90;;;;;;5067015;28;20418;-72
2023/06/12 05:56:01;;;;;;;8.20;4.73;;;18.40;99.90;;;;;;5058570;28;20419;-72
2023/06/12 05:58:27;;;;;;;9.57;3.40;;;18.30;99.90;;;;;;5063846;28;20420;-71
2023/06/12 06:00:55;;;;;;;7.70;3.45;;;18.40;99.90;;;;;;5063588;28;20483;-72
2023/06/12 06:03:23;;;;;;;8.43;4.23;;;18.60;99.90;;;;;;5069112;28;20411;-72
2023/06/12 06:05:49;;;;;;;8.40;3.85;;;18.70;99.90;;;;;;5070770;28;20474;-71
2023/06/12 06:08:15;;;;;;;10.00;4.50;;;18.80;99.90;;;;;;5061762;28;20443;-72
2023/06/12 06:10:41;;;;;;;8.18;4.57;;;18.80;99.90;;;;;;5069128;28;20416;-73
2023/06/12 06:13:08;;;;;;;8.82;4.63;;;18.80;99.90;;;;;;5069430;28;20424;-72
2023/06/12 06:15:34;;;;;;;5.50;3.73;;;18.70;99.90;;;;;;5070244;28;20480;-71
2023/06/12 06:17:59;;;;;;;8.13;3.73;;;18.70;99.90;;;;;;5067469;28;20465;-72
2023/06/12 06:20:26;;;;;;;9.07;4.50;;;18.90;99.90;;;;;;5069607;28;20408;-72
2023/06/12 06:22:52;;;;;;;6.13;3.93;;;19.10;99.90;;;;;;5068629;28;20423;-72
2023/06/12 06:25:18;;;;;;;7.90;3.73;;;19.00;99.90;;;;;;5068370;28;20423;-72
2023/06/12 06:27:44;;;;;;;10.40;3.67;;;19.10;99.90;;;;;;5068792;28;20416;-72
2023/06/12 06:30:10;;;;;;;7.22;3.72;;;19.00;99.90;;;;;;5056879;28;20473;-72
2023/06/12 06:32:36;;;;;;;10.90;4.53;;;19.10;99.90;;;;;;5068557;28;20494;-72
2023/06/12 06:35:02;;;;;;;8.80;4.47;;;19.20;99.90;;;;;;5053675;28;20846;-71
2023/06/12 06:37:28;;;;;;;9.27;4.00;;;19.30;99.90;;;;;;5066498;28;20419;-72
2023/06/12 06:39:54;;;;;;;7.70;4.50;;;19.40;99.90;;;;;;5068808;28;20498;-72
2023/06/12 06:42:19;;;;;;;9.23;4.60;;;19.50;99.90;;;;;;5067528;28;20469;-72
2023/06/12 06:44:45;;;;;;;8.45;4.03;;;19.40;99.90;;;;;;5053266;28;20449;-71
2023/06/12 06:47:11;;;;;;;13.23;4.50;;;19.40;99.90;;;;;;5059158;28;20427;-72
2023/06/12 06:49:40;;;;;;;10.38;5.68;;;19.60;99.90;;;;;;5051059;28;21350;-72
2023/06/12 06:52:06;;;;;;;11.07;4.63;;;19.70;99.90;;;;;;5067798;28;20432;-71
2023/06/12 06:54:31;;;;;;;8.25;4.68;;;19.70;99.90;;;;;;5069790;28;20404;-71
2023/06/12 06:56:57;;;;;;;8.93;4.93;;;20.50;99.90;;;;;;5067311;28;20782;-71
2023/06/12 06:59:23;;;;;;;6.80;4.35;;;20.60;99.90;;;;;;5069449;28;20983;-72
2023/06/12 07:01:49;;;;;;;10.37;4.93;;;21.70;99.90;;;;;;5069860;28;20831;-72
2023/06/12 07:04:15;;;;;;;7.07;4.38;;;21.90;99.90;;;;;;5070258;28;20052;-73
2023/06/12 07:06:40;;;;;;;11.68;4.03;;;23.10;99.90;;;;;;5065869;28;20044;-72
2023/06/12 07:09:08;;;;;;;8.32;4.40;;;23.10;99.90;;;;;;5067370;28;20136;-73
2023/06/12 07:11:34;;;;;;;11.60;3.67;;;23.40;99.90;;;;;;5069779;28;20055;-73
2023/06/12 07:14:00;;;;;;;10.60;5.28;;;23.40;99.90;;;;;;5069619;28;20448;-72
2023/06/12 07:16:26;;;;;;;5.47;4.57;;;23.50;99.90;;;;;;5063045;28;20044;-73
2023/06/12 07:18:52;;;;;;;6.72;4.07;;;24.70;99.90;;;;;;5069468;28;20390;-73
2023/06/12 07:21:18;;;;;;;9.52;4.57;;;25.00;99.90;;;;;;5069119;28;20041;-72
2023/06/12 07:23:43;;;;;;;7.00;4.22;;;25.10;99.90;;;;;;5069620;28;20051;-72
2023/06/12 07:26:09;;;;;;;8.70;3.85;;;24.70;99.90;;;;;;5084240;28;20037;-73
2023/06/12 07:28:35;;;;;;;10.77;3.90;;;25.10;99.90;;;;;;5068990;28;20037;-72
2023/06/12 07:31:01;;;;;;;7.55;4.22;;;24.90;99.90;;;;;;5068054;28;20048;-73
2023/06/12 07:33:27;;;;;;;11.30;4.38;;;24.30;99.90;;;;;;5068803;28;20037;-72
2023/06/12 07:35:53;;;;;;;5.80;4.45;;;24.60;99.90;;;;;;5069113;28;20522;-72
2023/06/12 07:38:19;;;;;;;12.52;5.32;;;24.80;99.90;;;;;;5068785;28;20037;-74
2023/06/12 07:40:45;;;;;;;9.32;4.10;;;24.80;99.90;;;;;;5070526;28;20067;-74
2023/06/12 07:43:10;;;;;;;5.15;4.28;;;25.10;99.90;;;;;;5064152;28;20475;-73
2023/06/12 07:45:36;;;;;;;9.75;3.63;;;25.30;99.90;;;;;;5048699;28;20052;-74
2023/06/12 07:48:02;;;;;;;8.27;3.80;;;25.20;99.90;;;;;;5063674;28;20580;-75
2023/06/12 07:50:28;;;;;;;7.30;4.25;;;23.80;99.90;;;;;;5068818;28;20044;-74
2023/06/12 07:52:53;;;;;;;9.32;4.45;;;22.80;99.90;;;;;;5068626;28;20041;-75
2023/06/12 07:55:20;;;;;;;7.05;3.55;;;22.90;99.90;;;;;;5070221;28;20052;-74
2023/06/12 07:57:47;;;;;;;;;;;22.90;99.90;;;;;;5070812;28;20422;-75
2023/06/12 08:00:13;;;;;;;;;;;23.00;99.90;;;;;;5068563;28;19920;-74
2023/06/12 08:02:40;;;;;;;;;;;22.90;99.90;;;;;;5070507;28;20247;-74
2023/06/12 08:05:07;;;;;;;;;;;23.30;99.90;;;;;;5069346;28;19920;-75
2023/06/12 08:07:33;;;;;;;;;;;23.40;99.90;;;;;;5066847;28;19999;-75
2023/06/12 08:09:58;;;;;;;;;;;23.00;99.90;;;;;;5068457;28;20275;-75
2023/06/12 08:12:24;;;;;;;;;;;23.00;99.90;;;;;;5068083;28;19920;-73
2023/06/12 08:14:51;;;;;;;;;;;23.10;99.90;;;;;;5068441;28;19928;-74
2023/06/12 08:17:17;;;;;;;;;;;23.20;99.90;;;;;;5063302;28;19928;-74
2023/06/12 08:19:43;;;;;;;;;;;23.50;99.90;;;;;;5062574;28;19928;-72
2023/06/12 08:22:09;;;;;;;;;;;23.60;99.90;;;;;;5066492;28;19924;-74
2023/06/12 08:24:38;;;;;;;;;;;23.60;99.90;;;;;;5065536;28;20344;-73
2023/06/12 08:27:04;;;;;;;;;;;23.70;99.90;;;;;;5067172;28;19927;-74
2023/06/12 08:29:29;;;;;;;;;;;23.70;99.90;;;;;;5066958;28;19920;-73
2023/06/12 08:31:55;;;;;;;;;;;24.00;99.90;;;;;;5068938;28;19934;-73
2023/06/12 08:34:25;;;;;;;;;;;24.20;99.90;;;;;;5063534;28;20066;-72
2023/06/12 08:36:54;;;;;;;;;;;24.30;99.90;;;;;;5047883;28;19931;-73
2023/06/12 08:39:20;;;;;;;;;;;24.10;99.90;;;;;;5068089;28;19921;-73
2023/06/12 08:41:51;;;;;;;;;;;24.30;99.90;;;;;;5068795;28;20385;-73
2023/06/12 08:44:17;;;;;;;;;;;24.30;99.90;;;;;;5067006;28;19927;-74
2023/06/12 08:46:43;;;;;;;;;;;24.50;99.90;;;;;;5068666;28;20274;-72
2023/06/12 08:49:09;;;;;;;;;;;24.30;99.90;;;;;;5068763;28;19931;-71
2023/06/12 08:51:36;;;;;;;;;;;24.20;99.90;;;;;;5060699;28;19928;-73
2023/06/12 08:54:02;;;;;;;;;;;24.10;99.90;;;;;;5049030;28;19920;-72
2023/06/12 08:56:28;;;;;;;6.65;3.55;;;24.40;99.90;;;;;;5048451;28;20015;-72
2023/06/12 08:58:54;;;;;;;11.13;3.47;;;24.40;99.90;;;;;;5065770;28;20063;-73
2023/06/12 09:01:21;;;;;;;12.77;5.03;;;24.40;99.90;;;;;;5067910;28;20037;-71
2023/06/12 09:03:48;;;;;;;;;;;24.50;99.90;;;;;;5068829;28;20040;-73
2023/06/12 09:06:16;;;;;;;10.32;3.47;;;25.00;99.90;;;;;;5067485;28;20003;-72
2023/06/12 09:08:42;;;;;;;13.17;4.93;;;24.80;99.90;;;;;;5058965;28;20424;-72
2023/06/12 09:11:08;;;;;;;7.25;3.50;;;24.70;99.90;;;;;;5047380;28;20421;-71
2023/06/12 09:13:42;;;;;;;6.03;3.95;;;25.00;99.90;;;;;;5047313;28;20428;-72
2023/06/12 09:16:12;;;;;;;7.35;4.43;;;25.00;99.90;;;;;;5060354;28;20416;-71
2023/06/12 09:18:51;;;;;;;6.70;4.05;;;25.40;99.90;;;;;;5065589;28;20428;-72
2023/06/12 09:21:17;;;;;;;5.05;4.15;;;25.40;99.90;;;;;;5066096;28;20453;-74
2023/06/12 09:23:45;;;;;;;11.00;4.33;;;25.60;99.90;;;;;;5067016;28;20968;-72
2023/06/12 09:26:15;;;;;;;6.47;3.97;;;25.70;99.90;;;;;;5066212;28;20419;-73
2023/06/12 09:28:42;;;;;;;6.50;4.07;;;25.50;99.90;;;;;;5065792;28;20449;-71
2023/06/12 09:31:08;;;;;;;6.97;3.80;;;25.60;99.90;;;;;;5065846;28;20431;-72
2023/06/12 09:33:40;;;;;;;9.77;4.90;;;25.40;99.90;;;;;;5066348;28;20807;-72
2023/06/12 09:36:07;;;;;;;7.57;4.33;;;25.20;99.90;;;;;;5065778;28;20406;-72
2023/06/12 09:38:34;;;;;;;6.90;3.70;;;25.70;99.90;;;;;;5059380;28;20453;-72
2023/06/12 09:41:04;;;;;;;9.97;3.70;;;26.00;99.90;;;;;;5059871;28;20766;-73
2023/06/12 09:43:31;;;;;;;6.72;3.92;;;25.90;99.90;;;;;;5049831;28;20433;-73
2023/06/12 09:45:58;;;;;;;7.35;4.25;;;25.60;99.90;;;;;;5065117;28;20526;-71
2023/06/12 09:48:24;;;;;;;7.97;4.03;;;25.90;99.90;;;;;;5060708;28;20770;-73
2023/06/12 09:50:50;;;;;;;9.93;4.07;;;25.50;99.90;;;;;;5065227;28;20439;-72
2023/06/12 09:53:21;;;;;;;9.63;3.40;;;25.70;99.90;;;;;;5048573;28;20411;-72
2023/06/12 09:55:48;;;;;;;7.53;4.18;;;25.80;99.90;;;;;;5063055;28;20429;-74
2023/06/12 09:58:17;;;;;;;6.00;4.03;;;25.80;99.90;;;;;;5048765;28;20051;-72
2023/06/12 10:00:43;;;;;;;6.53;3.50;;;25.80;99.90;;;;;;5045843;28;20045;-72
2023/06/12 10:03:10;;;;;;;9.10;3.33;;;25.60;99.90;;;;;;5061760;28;20060;-73
2023/06/12 10:05:41;;;;;;;4.75;3.45;;;25.50;99.90;;;;;;5045299;28;20056;-72
2023/06/12 10:08:07;;;;;;;8.80;3.55;;;25.80;99.90;;;;;;5047983;28;20043;-73
2023/06/12 10:10:36;;;;;;;6.80;3.03;;;25.90;99.90;;;;;;5062906;28;20394;-73
2023/06/12 10:13:03;;;;;;;8.45;4.22;;;25.90;96.60;;;;;;5059188;28;20049;-73
2023/06/12 10:15:30;;;;;;;4.60;3.33;;;26.00;96.00;;;;;;5062584;28;20036;-73
2023/06/12 10:17:57;;;;;;;9.10;4.30;;;26.30;99.20;;;;;;5065418;28;20052;-73
2023/06/12 10:20:24;;;;;;;5.68;3.53;;;26.40;99.90;;;;;;5062654;28;20029;-73
2023/06/12 10:22:55;;;;;;;5.82;3.15;;;26.10;96.30;;;;;;5065899;28;20033;-73
2023/06/12 10:25:22;;;;;;;11.60;4.28;;;26.40;99.90;;;;;;5048763;28;20036;-73
2023/06/12 10:27:48;;;;;;;6.82;3.40;;;26.70;99.00;;;;;;5067081;28;20090;-74
2023/06/12 10:30:17;;;;;;;6.55;3.22;;;26.20;96.20;;;;;;5067378;28;20052;-72
2023/06/12 10:32:45;;;;;;;5.00;3.70;;;26.40;97.70;;;;;;5066789;28;20074;-71
2023/06/12 10:35:12;;;;;;;4.53;3.50;;;26.60;96.00;;;;;;5047162;28;20304;-72
2023/06/12 10:37:44;;;;;;;4.70;3.17;;;26.60;95.40;;;;;;5046022;28;20056;-74
2023/06/12 10:40:19;;;;;;;6.47;3.50;;;26.90;94.70;;;;;;5056127;28;20424;-73
2023/06/12 10:42:54;;;;;;;6.68;3.67;;;27.10;95.90;;;;;;5046216;28;20409;-73
2023/06/12 10:46:07;;;;;;;7.95;4.22;;;27.30;93.80;;;;;;5063847;28;20975;-71
2023/06/12 10:48:45;;;;;;;7.03;3.70;;;27.30;99.30;;;;;;5047007;28;20746;-72
2023/06/12 10:51:12;;;;;;;6.87;3.80;;;27.60;95.00;;;;;;5066307;28;20423;-73
2023/06/12 10:53:43;;;;;;;8.90;4.22;;;27.80;92.00;;;;;;5069474;28;20427;-72
2023/06/12 10:56:09;;;;;;;9.98;4.40;;;27.60;93.40;;;;;;5059656;28;21226;-72
2023/06/12 10:58:36;;;;;;;5.20;3.80;;;27.90;91.70;;;;;;5056551;28;20450;-72
2023/06/12 11:01:09;;;;;;;6.10;3.95;;;27.80;94.20;;;;;;5062785;28;20418;-73
2023/06/12 11:03:39;;;;;;;5.63;3.63;;;27.70;92.80;;;;;;5068531;28;20408;-73
2023/06/12 11:06:13;;;;;;;6.18;3.35;;;27.40;91.40;;;;;;5066431;28;20541;-72
2023/06/12 11:08:42;;;;;;;5.40;3.80;;;27.60;91.60;;;;;;5068949;28;20569;-73
2023/06/12 11:11:10;;;;;;;4.47;3.70;;;27.20;88.20;;;;;;5067433;28;20425;-73
2023/06/12 11:13:39;;;;;;;7.93;3.53;;;27.60;86.80;;;;;;5068621;28;20410;-74
2023/06/12 11:16:05;;;;;;;5.87;4.00;;;27.70;86.10;;;;;;5069387;28;20412;-74
2023/06/12 11:18:31;;;;;;;4.38;3.42;;;27.80;85.70;;;;;;5068456;28;20453;-74
2023/06/12 11:20:57;;;;;;;4.90;3.70;;;27.90;90.50;;;;;;5061033;28;20466;-74
2023/06/12 11:23:27;;;;;;;13.07;4.45;;;27.90;90.30;;;;;;5061458;28;20434;-74
2023/06/12 11:25:55;;;;;;;6.57;3.80;;;28.00;88.70;;;;;;5063516;28;20448;-74
2023/06/12 11:28:23;;;;;;;12.18;4.40;;;27.90;88.80;;;;;;5064300;28;20505;-74
2023/06/12 11:30:50;;;;;;;7.38;3.88;;;27.80;89.00;;;;;;5068225;28;20814;-74
2023/06/12 11:33:17;;;;;;;6.43;3.65;;;28.10;86.50;;;;;;5064374;28;20414;-73
2023/06/12 11:35:45;;;;;;;5.47;3.50;;;28.40;86.90;;;;;;5049001;28;20401;-74
2023/06/12 11:38:16;;;;;;;8.38;4.10;;;27.90;90.10;;;;;;5066455;28;20438;-74
2023/06/12 11:40:43;;;;;;;7.63;4.37;;;28.30;90.50;;;;;;5069056;28;20400;-74
2023/06/12 11:43:09;;;;;;;4.22;3.53;;;28.40;89.30;;;;;;5068450;28;20392;-75
2023/06/12 11:45:41;;;;;;;6.15;4.95;;;28.20;88.90;;;;;;5068289;28;20456;-73
2023/06/12 11:48:13;;;;;;;7.70;3.88;;;28.70;84.40;;;;;;5066580;28;20407;-75
2023/06/12 11:50:39;;;;;;;8.57;4.60;;;28.60;84.70;;;;;;5067154;28;20473;-74
2023/06/12 11:53:05;;;;;;;13.82;4.30;;;28.70;91.20;;;;;;5068269;28;20489;-74
2023/06/12 11:55:32;;;;;;;7.95;4.15;;;28.80;89.60;;;;;;5067698;28;20415;-76
2023/06/12 11:58:01;;;;;;;6.38;4.53;;;28.40;90.60;;;;;;5063280;28;20926;-76
2023/06/12 12:00:30;;;;;;;7.93;4.87;;;28.50;87.50;;;;;;5046605;28;20920;-74
2023/06/12 12:03:01;;;;;;;7.13;4.68;;;28.80;90.00;;;;;;5045935;28;20420;-74
2023/06/12 12:05:31;;;;;;;6.82;3.70;;;28.90;91.00;;;;;;5047194;28;20508;-75
2023/06/12 12:07:59;;;;;;;7.07;4.20;;;28.50;86.80;;;;;;5064660;28;20984;-75
2023/06/12 12:10:26;;;;;;;7.70;4.15;;;28.60;90.50;;;;;;5066324;28;20751;-75
2023/06/12 12:12:59;;;;;;;7.43;4.60;;;28.80;82.60;;;;;;5068422;28;20897;-75
2023/06/12 12:15:46;;;;;;;5.72;4.85;;;29.20;83.70;;;;;;5067557;28;20427;-73
2023/06/12 12:18:13;;;;;;;5.15;3.92;;;29.00;78.90;;;;;;5065724;28;20428;-74
2023/06/12 12:20:39;;;;;;;8.43;4.95;;;28.90;79.00;;;;;;5065103;28;20403;-73
2023/06/12 12:23:10;;;;;;;7.07;4.53;;;29.30;80.00;;;;;;5054301;28;20494;-74
2023/06/12 12:25:36;;;;;;;5.65;4.78;;;29.80;75.40;;;;;;5046849;28;21335;-73
2023/06/12 12:28:03;;;;;;;8.82;5.20;;;29.60;74.20;;;;;;5046270;28;20428;-75
2023/06/12 12:30:30;;;;;;;5.03;4.50;;;29.00;66.90;;;;;;5061169;28;20436;-74
2023/06/12 12:32:57;;;;;;;9.13;5.22;;;28.80;70.40;;;;;;5054441;28;20467;-74
2023/06/12 12:35:23;;;;;;;9.10;4.77;;;29.00;75.00;;;;;;5053340;28;20434;-74
2023/06/12 12:37:51;;;;;;;7.07;4.65;;;29.20;79.10;;;;;;5065991;28;20423;-76
2023/06/12 12:40:17;;;;;;;9.07;4.65;;;29.40;76.50;;;;;;5059152;28;20468;-76
2023/06/12 12:42:48;;;;;;;6.15;5.32;;;29.40;77.70;;;;;;5062712;28;20459;-74
2023/06/12 12:45:18;;;;;;;5.43;4.37;;;29.60;70.60;;;;;;5060065;28;20421;-74
2023/06/12 12:47:47;;;;;;;11.25;5.47;;;29.50;71.90;;;;;;5064534;28;20423;-73
2023/06/12 12:50:13;;;;;;;7.05;4.95;;;29.20;72.40;;;;;;5066802;28;20431;-73
2023/06/12 12:52:39;;;;;;;7.60;5.20;;;28.90;74.60;;;;;;5054236;28;20425;-73
2023/06/12 12:55:06;;;;;;;15.23;6.40;;;29.30;74.60;;;;;;5052445;28;20423;-74